Time;durP1;ratioP1;P1;durP2;ratioP2;P2;SDS_P1;SDS_P2;PMS_P1;PMS_P2;Temp;Humidity;BMP_temperature;BMP_pressure;BME280_temperature;BME280_humidity;BME280_pressure;Samples;Min_cycle;Max_cycle;Signal;HPM_P1;HPM_P2
2022/12/10 00:01:09;;;;;;;18.63;16.85;;;;;;;;;;5087355;28;20402;-86
2022/12/10 00:03:35;;;;;;;18.00;16.40;;;;;;;;;;5091177;28;20430;-86
2022/12/10 00:06:02;;;;;;;17.83;16.13;;;;;;;;;;5092523;28;20465;-86
2022/12/10 00:08:29;;;;;;;19.73;17.83;;;;;;;;;;5107581;28;20751;-86
2022/12/10 00:10:55;;;;;;;20.35;18.27;;;;;;;;;;5092627;28;20728;-87
2022/12/10 00:13:21;;;;;;;20.80;18.75;;;;;;;;;;5092842;28;20394;-86
2022/12/10 00:15:46;;;;;;;21.07;18.97;;;;;;;;;;5092842;28;20378;-87
2022/12/10 00:18:12;;;;;;;18.98;17.15;;;;;;;;;;5092668;28;20374;-86
2022/12/10 00:20:38;;;;;;;20.00;18.00;;;;;;;;;;5095840;28;20483;-86
2022/12/10 00:23:04;;;;;;;20.80;18.70;;;;;;;;;;5104158;28;20377;-86
2022/12/10 00:25:32;;;;;;;19.58;17.67;;;;;;;;;;5092671;28;20386;-87
2022/12/10 00:27:58;;;;;;;19.80;17.80;;;;;;;;;;5092915;28;20389;-87
2022/12/10 00:30:24;;;;;;;20.55;18.55;;;;;;;;;;5089449;28;20394;-86
2022/12/10 00:32:49;;;;;;;20.92;18.83;;;;;;;;;;5088401;28;20409;-86
2022/12/10 00:35:15;;;;;;;21.15;19.00;;;;;;;;;;5092567;28;20416;-86
2022/12/10 00:37:41;;;;;;;22.27;19.97;;;;;;;;;;5092698;28;20378;-87
2022/12/10 00:40:08;;;;;;;22.13;19.83;;;;;;;;;;5092406;28;20414;-87
2022/12/10 00:42:34;;;;;;;23.13;20.63;;;;;;;;;;5092528;28;20393;-86
2022/12/10 00:45:00;;;;;;;20.80;18.50;;;;;;;;;;5092306;28;20385;-86
2022/12/10 00:47:26;;;;;;;20.35;18.35;;;;;;;;;;5092485;28;20381;-87
2022/12/10 00:49:52;;;;;;;20.17;18.15;;;;;;;;;;5092445;28;20878;-86
2022/12/10 00:52:18;;;;;;;20.45;18.23;;;;;;;;;;5085241;28;20390;-87
2022/12/10 00:54:44;;;;;;;21.08;18.95;;;;;;;;;;5086069;28;20385;-87
2022/12/10 00:57:10;;;;;;;20.77;18.63;;;;;;;;;;5092444;28;20844;-86
2022/12/10 00:59:36;;;;;;;21.65;19.35;;;;;;;;;;5092347;28;20420;-86
2022/12/10 01:02:04;;;;;;;21.52;19.23;;;;;;;;;;5093399;28;20468;-86
2022/12/10 01:04:29;;;;;;;21.90;19.70;;;;;;;;;;5096038;28;20377;-86
2022/12/10 01:06:55;;;;;;;21.88;19.58;;;;;;;;;;5096127;28;20391;-87
2022/12/10 01:09:23;;;;;;;21.83;19.70;;;;;;;;;;5096590;28;20440;-87
2022/12/10 01:11:50;;;;;;;23.58;21.08;;;;;;;;;;5096321;28;20414;-87
2022/12/10 01:14:21;;;;;;;22.27;19.88;;;;;;;;;;5096308;28;20406;-86
2022/12/10 01:16:47;;;;;;;22.92;20.55;;;;;;;;;;5096049;28;20429;-86
2022/12/10 01:19:13;;;;;;;22.38;19.90;;;;;;;;;;5096164;28;20766;-86
2022/12/10 01:21:39;;;;;;;22.52;20.17;;;;;;;;;;5078094;28;20878;-86
2022/12/10 01:24:05;;;;;;;22.40;20.03;;;;;;;;;;5096297;28;20408;-87
2022/12/10 01:26:33;;;;;;;21.90;19.67;;;;;;;;;;5096423;28;20389;-87
2022/12/10 01:28:59;;;;;;;23.17;20.67;;;;;;;;;;5077902;28;20785;-87
2022/12/10 01:31:25;;;;;;;24.05;21.48;;;;;;;;;;5095980;28;20747;-87
2022/12/10 01:33:51;;;;;;;22.47;20.07;;;;;;;;;;5095822;28;20374;-87
2022/12/10 01:36:19;;;;;;;23.80;21.30;;;;;;;;;;5089618;28;20400;-85
2022/12/10 01:38:45;;;;;;;23.25;20.73;;;;;;;;;;5095793;28;20469;-85
2022/12/10 01:41:19;;;;;;;24.95;21.60;;;;;;;;;;5096706;28;20431;-87
2022/12/10 01:44:05;;;;;;;23.60;21.10;;;;;;;;;;5099600;28;20386;-87
2022/12/10 01:46:32;;;;;;;24.08;21.48;;;;;;;;;;5095929;28;20847;-87
2022/12/10 01:48:59;;;;;;;21.67;19.38;;;;;;;;;;5096080;28;20382;-87
2022/12/10 01:51:28;;;;;;;23.63;21.05;;;;;;;;;;5095901;28;20436;-87
2022/12/10 01:53:54;;;;;;;22.83;20.42;;;;;;;;;;5095293;28;20426;-87
2022/12/10 01:56:21;;;;;;;21.83;19.63;;;;;;;;;;5095365;28;20927;-87
2022/12/10 01:58:48;;;;;;;22.17;19.98;;;;;;;;;;5095539;28;20422;-87
2022/12/10 02:01:17;;;;;;;22.23;19.85;;;;;;;;;;5095400;28;20715;-86
2022/12/10 02:03:52;;;;;;;21.80;19.60;;;;;;;;;;5095056;28;20392;-87
2022/12/10 02:06:41;;;;;;;22.25;19.95;;;;;;;;;;5095211;28;20820;-87
2022/12/10 02:09:20;;;;;;;21.38;19.17;;;;;;;;;;5095573;28;20452;-87
2022/12/10 02:12:02;;;;;;;21.73;19.53;;;;;;;;;;5095461;28;20438;-87
2022/12/10 02:14:28;;;;;;;22.27;19.98;;;;;;;;;;5101150;28;20383;-86
2022/12/10 02:17:07;;;;;;;22.47;20.10;;;;;;;;;;5101277;28;20471;-87
2022/12/10 02:19:48;;;;;;;22.35;20.00;;;;;;;;;;5095232;28;20465;-86
2022/12/10 02:22:15;;;;;;;22.65;20.25;;;;;;;;;;5095078;28;20948;-86
2022/12/10 02:24:42;;;;;;;21.48;19.27;;;;;;;;;;5095092;28;20415;-86
2022/12/10 02:27:14;;;;;;;22.33;20.02;;;;;;;;;;5095160;28;20439;-87
2022/12/10 02:29:42;;;;;;;20.30;18.30;;;;;;;;;;5095169;28;20432;-86
2022/12/10 02:32:15;;;;;;;21.70;19.40;;;;;;;;;;5091162;28;20470;-87
2022/12/10 02:34:43;;;;;;;20.63;18.50;;;;;;;;;;5094486;28;20514;-87
2022/12/10 02:37:15;;;;;;;19.98;18.08;;;;;;;;;;5094700;28;20401;-87
2022/12/10 02:39:43;;;;;;;22.08;19.77;;;;;;;;;;5094651;28;20857;-87
2022/12/10 02:42:10;;;;;;;20.77;18.67;;;;;;;;;;5093805;28;20472;-86
2022/12/10 02:44:37;;;;;;;20.42;18.42;;;;;;;;;;5083269;28;20398;-86
2022/12/10 02:47:04;;;;;;;19.65;17.70;;;;;;;;;;5080144;28;20397;-87
2022/12/10 02:49:30;;;;;;;19.83;17.80;;;;;;;;;;5092639;28;20413;-86
2022/12/10 02:51:56;;;;;;;21.42;19.20;;;;;;;;;;5093911;28;20389;-87
2022/12/10 02:54:39;;;;;;;21.00;18.90;;;;;;;;;;5094199;28;20382;-87
2022/12/10 02:57:13;;;;;;;20.58;18.48;;;;;;;;;;5094091;28;20374;-86
2022/12/10 02:59:47;;;;;;;20.50;18.40;;;;;;;;;;5071999;28;20984;-87
2022/12/10 03:02:16;;;;;;;20.80;18.70;;;;;;;;;;5093861;28;20433;-87
2022/12/10 03:04:48;;;;;;;21.20;19.05;;;;;;;;;;5093787;28;20386;-86
2022/12/10 03:07:20;;;;;;;22.13;19.83;;;;;;;;;;5094233;28;20449;-87
2022/12/10 03:09:49;;;;;;;20.00;18.10;;;;;;;;;;5075654;28;20453;-87
2022/12/10 03:12:20;;;;;;;20.60;18.50;;;;;;;;;;5094234;28;20474;-87
2022/12/10 03:14:46;;;;;;;20.27;18.27;;;;;;;;;;5094102;28;20381;-87
2022/12/10 03:17:14;;;;;;;20.50;18.33;;;;;;;;;;5093741;28;20393;-87
2022/12/10 03:19:42;;;;;;;21.10;18.90;;;;;;;;;;5093892;28;20491;-87
2022/12/10 03:22:10;;;;;;;21.67;19.48;;;;;;;;;;5075505;28;20926;-87
2022/12/10 03:24:36;;;;;;;20.77;18.58;;;;;;;;;;5093532;28;20453;-87
2022/12/10 03:27:04;;;;;;;21.25;19.05;;;;;;;;;;5093929;28;20389;-86
2022/12/10 03:29:38;;;;;;;20.08;17.98;;;;;;;;;;5093715;28;20382;-87
2022/12/10 03:32:04;;;;;;;20.95;18.77;;;;;;;;;;5102426;28;20845;-86
2022/12/10 03:34:30;;;;;;;21.10;18.90;;;;;;;;;;5098642;28;20435;-87
2022/12/10 03:36:57;;;;;;;22.15;19.75;;;;;;;;;;5093972;28;20382;-87
2022/12/10 03:39:23;;;;;;;21.05;18.92;;;;;;;;;;5078834;28;20518;-87
2022/12/10 03:41:49;;;;;;;21.52;19.30;;;;;;;;;;5093989;28;20385;-87
2022/12/10 03:44:26;;;;;;;22.38;19.98;;;;;;;;;;5102070;28;20390;-86
2022/12/10 03:46:52;;;;;;;21.40;19.10;;;;;;;;;;5107612;28;20377;-87
2022/12/10 03:49:18;;;;;;;21.95;19.48;;;;;;;;;;5093371;28;20388;-86
2022/12/10 03:51:44;;;;;;;22.02;19.52;;;;;;;;;;5093228;28;20743;-86
2022/12/10 03:54:10;;;;;;;21.45;19.25;;;;;;;;;;5093314;28;20381;-87
2022/12/10 03:56:36;;;;;;;22.13;19.77;;;;;;;;;;5093215;28;20850;-87
2022/12/10 03:59:02;;;;;;;21.50;19.25;;;;;;;;;;5093317;28;20505;-87
2022/12/10 04:01:28;;;;;;;21.95;19.65;;;;;;;;;;5093519;28;20390;-87
2022/12/10 04:03:54;;;;;;;21.90;19.55;;;;;;;;;;5093215;28;20693;-87
2022/12/10 04:06:20;;;;;;;23.50;20.08;;;;;;;;;;5074521;28;20477;-87
2022/12/10 04:08:47;;;;;;;23.00;20.50;;;;;;;;;;5093251;28;20468;-87
2022/12/10 04:11:13;;;;;;;23.23;19.80;;;;;;;;;;5092904;28;20432;-86
2022/12/10 04:16:28;;;;;;;26.65;21.80;;;;;;;;;;5098817;28;20469;-86
2022/12/10 04:18:55;;;;;;;25.08;21.48;;;;;;;;;;5096337;28;20833;-87
2022/12/10 04:26:53;;;;;;;24.10;20.85;;;;;;;;;;5092586;28;20406;-86
2022/12/10 04:29:23;;;;;;;23.90;20.73;;;;;;;;;;5092516;28;20861;-87
2022/12/10 04:31:50;;;;;;;23.70;21.10;;;;;;;;;;5092667;28;20385;-86
2022/12/10 04:34:16;;;;;;;22.75;19.95;;;;;;;;;;5081711;28;20384;-87
2022/12/10 04:36:42;;;;;;;23.65;20.48;;;;;;;;;;5090995;28;20743;-86
2022/12/10 04:39:08;;;;;;;22.35;19.95;;;;;;;;;;5092594;28;20413;-86
2022/12/10 04:41:34;;;;;;;23.70;19.77;;;;;;;;;;5092573;28;20382;-86
2022/12/10 04:44:00;;;;;;;21.52;19.23;;;;;;;;;;5092578;28;20459;-87
2022/12/10 04:46:26;;;;;;;21.67;19.30;;;;;;;;;;5092526;28;20381;-87
2022/12/10 04:48:52;;;;;;;21.95;19.42;;;;;;;;;;5092712;28;20420;-87
2022/12/10 04:51:18;;;;;;;21.43;19.13;;;;;;;;;;5089359;28;20382;-85
2022/12/10 04:53:44;;;;;;;22.38;19.80;;;;;;;;;;5090921;28;20381;-86
2022/12/10 04:56:10;;;;;;;25.60;20.90;;;;;;;;;;5086304;28;20388;-86
2022/12/10 04:58:36;;;;;;;25.95;21.42;;;;;;;;;;5087354;28;20410;-86
2022/12/10 05:01:06;;;;;;;24.95;21.90;;;;;;;;;;5090126;28;20416;-86
2022/12/10 05:03:32;;;;;;;25.00;21.25;;;;;;;;;;5090121;28;20390;-85
2022/12/10 05:06:03;;;;;;;23.42;20.25;;;;;;;;;;5087168;28;20378;-86
2022/12/10 05:08:29;;;;;;;27.00;21.67;;;;;;;;;;5091269;28;20438;-86
2022/12/10 05:10:55;;;;;;;24.17;20.60;;;;;;;;;;5074247;28;20416;-86
2022/12/10 05:13:21;;;;;;;24.67;21.30;;;;;;;;;;5092336;28;20885;-86
2022/12/10 05:15:47;;;;;;;23.55;20.20;;;;;;;;;;5092328;28;20378;-86
2022/12/10 05:18:13;;;;;;;25.33;21.13;;;;;;;;;;5092245;28;20850;-85
2022/12/10 05:20:39;;;;;;;26.35;22.33;;;;;;;;;;5092491;28;20420;-86
2022/12/10 05:25:57;;;;;;;25.50;21.17;;;;;;;;;;5073719;28;20425;-86
2022/12/10 05:28:23;;;;;;;26.63;21.65;;;;;;;;;;5073483;28;20498;-86
2022/12/10 05:30:49;;;;;;;27.50;22.70;;;;;;;;;;5074867;28;20441;-85
2022/12/10 05:33:15;;;;;;;26.00;20.90;;;;;;;;;;5072369;28;20380;-86
2022/12/10 05:35:41;;;;;;;24.15;20.60;;;;;;;;;;5072476;28;20448;-85
2022/12/10 05:38:08;;;;;;;24.75;20.80;;;;;;;;;;5088359;28;20385;-85
2022/12/10 05:40:37;;;;;;;23.30;20.38;;;;;;;;;;5084318;28;20380;-85
2022/12/10 05:43:03;;;;;;;25.38;20.95;;;;;;;;;;5073931;28;20439;-85
2022/12/10 05:45:32;;;;;;;26.70;21.13;;;;;;;;;;5078099;28;20470;-85
2022/12/10 05:47:58;;;;;;;26.20;21.75;;;;;;;;;;5091889;28;20909;-87
2022/12/10 05:50:24;;;;;;;26.08;21.52;;;;;;;;;;5094438;28;20417;-86
2022/12/10 05:52:51;;;;;;;23.52;20.48;;;;;;;;;;5094139;28;20465;-87
2022/12/10 05:55:17;;;;;;;23.73;20.35;;;;;;;;;;5093412;28;20390;-87
2022/12/10 05:57:43;;;;;;;22.73;19.17;;;;;;;;;;5092647;28;20416;-86
2022/12/10 06:00:10;;;;;;;22.30;19.50;;;;;;;;;;5075108;28;20454;-86
2022/12/10 06:02:36;;;;;;;25.85;21.17;;;;;;;;;;5082899;28;20381;-87
2022/12/10 06:05:05;;;;;;;24.80;20.77;;;;;;;;;;5080070;28;20416;-86
2022/12/10 06:07:31;;;;;;;25.65;20.90;;;;;;;;;;5074716;28;20392;-86
2022/12/10 06:09:57;;;;;;;23.38;19.55;;;;;;;;;;5073447;28;20772;-85
2022/12/10 06:12:23;;;;;;;28.50;21.97;;;;;;;;;;5074324;28;20391;-87
2022/12/10 06:14:49;;;;;;;27.50;21.17;;;;;;;;;;5075450;28;20384;-87
2022/12/10 06:17:15;;;;;;;24.00;20.55;;;;;;;;;;5087787;28;20851;-85
2022/12/10 06:19:41;;;;;;;26.85;21.55;;;;;;;;;;5081571;28;20542;-85
2022/12/10 06:22:07;;;;;;;23.10;19.48;;;;;;;;;;5089656;28;20378;-86
2022/12/10 06:24:33;;;;;;;23.90;20.10;;;;;;;;;;5095017;28;20928;-85
2022/12/10 06:26:59;;;;;;;27.63;22.38;;;;;;;;;;5095041;28;20382;-86
2022/12/10 06:29:25;;;;;;;30.58;22.98;;;;;;;;;;5081667;28;20385;-87
2022/12/10 06:31:51;;;;;;;29.58;23.15;;;;;;;;;;5092393;28;20992;-85
2022/12/10 06:34:17;;;;;;;35.72;26.92;;;;;;;;;;5093972;28;20448;-87
2022/12/10 06:36:43;;;;;;;39.15;28.38;;;;;;;;;;5082739;28;20390;-87
2022/12/10 06:39:09;;;;;;;35.00;25.42;;;;;;;;;;5073508;28;20419;-87
2022/12/10 06:41:35;;;;;;;32.60;24.60;;;;;;;;;;5089221;28;21136;-85
2022/12/10 06:44:01;;;;;;;31.20;23.88;;;;;;;;;;5088190;28;20438;-86
2022/12/10 06:46:28;;;;;;;31.15;23.38;;;;;;;;;;5071556;28;20380;-86
2022/12/10 06:48:54;;;;;;;34.53;25.17;;;;;;;;;;5072843;28;20376;-86
2022/12/10 06:51:20;;;;;;;29.58;23.08;;;;;;;;;;5085849;28;20870;-87
2022/12/10 06:53:46;;;;;;;29.35;23.25;;;;;;;;;;5092720;28;20424;-87
2022/12/10 06:56:14;;;;;;;31.23;24.17;;;;;;;;;;5076412;28;20977;-86
2022/12/10 06:58:41;;;;;;;31.00;24.02;;;;;;;;;;5091989;28;20437;-86
2022/12/10 07:01:20;;;;;;;29.92;22.38;;;;;;;;;;5094229;28;20865;-87
2022/12/10 07:03:48;;;;;;;29.55;22.23;;;;;;;;;;5093891;28;20500;-87
2022/12/10 07:06:14;;;;;;;29.05;22.80;;;;;;;;;;5078790;28;20422;-87
2022/12/10 07:08:40;;;;;;;30.90;23.27;;;;;;;;;;5083950;28;20729;-87
2022/12/10 07:11:16;;;;;;;30.67;23.35;;;;;;;;;;5113815;28;20414;-89
2022/12/10 07:13:42;;;;;;;28.27;22.52;;;;;;;;;;5078059;28;20392;-87
2022/12/10 07:16:13;;;;;;;30.70;22.90;;;;;;;;;;5070089;28;20399;-88
2022/12/10 07:18:39;;;;;;;29.47;23.00;;;;;;;;;;5086848;28;20463;-87
2022/12/10 07:21:24;;;;;;;27.23;21.48;;;;;;;;;;5071129;28;20770;-87
2022/12/10 07:23:55;;;;;;;27.65;21.88;;;;;;;;;;5088697;28;20378;-87
2022/12/10 07:26:22;;;;;;;31.20;24.60;;;;;;;;;;5075642;28;20739;-87
2022/12/10 07:28:48;;;;;;;31.58;25.48;;;;;;;;;;5070905;28;20392;-85
2022/12/10 07:31:14;;;;;;;29.95;23.40;;;;;;;;;;5093551;28;20938;-85
2022/12/10 07:33:40;;;;;;;30.15;23.20;;;;;;;;;;5093312;28;20473;-88
2022/12/10 07:36:06;;;;;;;29.02;22.13;;;;;;;;;;5093187;28;20465;-88
2022/12/10 07:38:32;;;;;;;29.00;22.17;;;;;;;;;;5079831;28;20490;-89
2022/12/10 07:40:58;;;;;;;29.48;22.48;;;;;;;;;;5074537;28;20390;-89
2022/12/10 07:43:24;;;;;;;33.40;24.75;;;;;;;;;;5104089;28;20447;-88
2022/12/10 07:45:50;;;;;;;33.10;23.80;;;;;;;;;;5083263;28;20473;-87
2022/12/10 07:48:17;;;;;;;31.65;24.13;;;;;;;;;;5093307;28;20379;-89
2022/12/10 07:50:43;;;;;;;33.03;23.95;;;;;;;;;;5092946;28;20452;-88
2022/12/10 07:53:09;;;;;;;32.53;24.15;;;;;;;;;;5068081;28;20390;-90
2022/12/10 07:55:35;;;;;;;33.20;24.05;;;;;;;;;;5074182;28;20527;-89
2022/12/10 07:58:01;;;;;;;31.33;23.45;;;;;;;;;;5074968;28;20390;-88
2022/12/10 08:00:27;;;;;;;37.07;27.07;;;;;;;;;;5090039;28;20940;-89
2022/12/10 08:02:53;;;;;;;44.45;32.72;;;;;;;;;;5083141;28;20385;-90
2022/12/10 08:05:19;;;;;;;39.53;29.13;;;;;;;;;;5107205;28;20389;-89
2022/12/10 08:07:45;;;;;;;43.72;31.98;;;;;;;;;;5094229;28;20422;-90
2022/12/10 08:10:11;;;;;;;36.90;27.92;;;;;;;;;;5100638;28;20388;-89
2022/12/10 08:12:37;;;;;;;37.75;26.92;;;;;;;;;;5092591;28;20390;-89
2022/12/10 08:15:03;;;;;;;35.45;26.40;;;;;;;;;;5067210;28;20393;-90
2022/12/10 08:17:29;;;;;;;33.53;25.15;;;;;;;;;;5082335;28;20463;-90
2022/12/10 08:19:55;;;;;;;33.72;24.83;;;;;;;;;;5085257;28;20565;-90
2022/12/10 08:22:21;;;;;;;32.80;23.88;;;;;;;;;;5078729;28;20947;-90
2022/12/10 08:24:47;;;;;;;34.05;24.63;;;;;;;;;;5093328;28;20389;-90
2022/12/10 08:27:13;;;;;;;33.33;24.27;;;;;;;;;;5061499;28;20713;-89
2022/12/10 08:29:39;;;;;;;31.77;23.65;;;;;;;;;;5085919;28;20398;-89
2022/12/10 08:32:05;;;;;;;29.75;23.00;;;;;;;;;;5085953;28;20382;-90
2022/12/10 08:34:31;;;;;;;32.90;24.48;;;;;;;;;;5073756;28;20797;-89
2022/12/10 08:36:57;;;;;;;30.30;23.90;;;;;;;;;;5100464;28;20368;-90
2022/12/10 08:39:23;;;;;;;32.35;25.33;;;;;;;;;;5105853;28;20412;-90
2022/12/10 08:41:49;;;;;;;47.53;35.00;;;;;;;;;;5075636;28;20850;-90
2022/12/10 08:44:15;;;;;;;31.48;24.20;;;;;;;;;;5082199;28;20394;-89
2022/12/10 08:46:41;;;;;;;40.03;29.70;;;;;;;;;;5075543;28;20377;-90
2022/12/10 08:49:07;;;;;;;34.40;26.10;;;;;;;;;;5114290;28;20366;-91
2022/12/10 08:51:33;;;;;;;32.87;24.57;;;;;;;;;;5080271;28;20533;-90
2022/12/10 08:53:59;;;;;;;31.63;24.05;;;;;;;;;;5084214;28;20386;-90
2022/12/10 08:56:26;;;;;;;30.77;23.87;;;;;;;;;;5055938;28;20384;-88
2022/12/10 08:58:52;;;;;;;32.35;24.15;;;;;;;;;;5073267;28;20499;-89
2022/12/10 09:01:18;;;;;;;33.33;25.13;;;;;;;;;;5073025;28;20446;-89
2022/12/10 09:03:45;;;;;;;33.07;24.93;;;;;;;;;;5082240;28;20386;-87
2022/12/10 09:06:12;;;;;;;34.00;25.33;;;;;;;;;;5055885;28;20862;-89
2022/12/10 09:08:38;;;;;;;32.45;24.52;;;;;;;;;;5063457;28;20859;-88
2022/12/10 09:11:09;;;;;;;32.38;24.80;;;;;;;;;;5088617;28;20387;-88
2022/12/10 09:13:35;;;;;;;31.65;22.95;;;;;;;;;;5097760;28;20392;-90
2022/12/10 09:16:01;;;;;;;29.70;21.80;;;;;;;;;;5106358;28;20471;-90
2022/12/10 09:18:27;;;;;;;31.00;22.92;;;;;;;;;;5073729;28;20738;-89
2022/12/10 09:20:53;;;;;;;29.60;22.55;;;;;;;;;;5082473;28;20387;-90
2022/12/10 09:23:19;;;;;;;28.13;21.50;;;;;;;;;;5072965;28;20417;-88
2022/12/10 09:25:45;;;;;;;21.42;17.23;;;;;;;;;;5072613;28;20496;-87
2022/12/10 09:28:11;;;;;;;26.35;20.75;;;;;;;;;;5073180;28;20856;-89
2022/12/10 09:30:37;;;;;;;18.70;16.70;;;;;;;;;;5085528;28;20386;-88
2022/12/10 09:33:03;;;;;;;18.00;16.03;;;;;;;;;;5080349;28;20951;-90
2022/12/10 09:35:29;;;;;;;19.50;16.45;;;;;;;;;;5095765;28;20433;-87
2022/12/10 09:37:55;;;;;;;21.63;17.87;;;;;;;;;;5088386;28;20385;-89
2022/12/10 09:40:30;;;;;;;18.15;16.23;;;;;;;;;;5088051;28;20425;-88
2022/12/10 09:43:15;;;;;;;17.60;15.80;;;;;;;;;;5093585;28;20428;-87
2022/12/10 09:45:53;;;;;;;17.55;15.35;;;;;;;;;;5084095;28;20373;-91
2022/12/10 09:48:38;;;;;;;20.20;16.88;;;;;;;;;;5077410;28;20958;-90
2022/12/10 09:51:13;;;;;;;19.90;17.73;;;;;;;;;;5091869;28;20450;-87
2022/12/10 09:53:40;;;;;;;18.25;16.17;;;;;;;;;;5082406;28;20447;-88
2022/12/10 09:56:07;;;;;;;17.52;15.13;;;;;;;;;;5088415;28;20384;-87
2022/12/10 09:58:34;;;;;;;18.33;15.85;;;;;;;;;;5073556;28;20390;-87
2022/12/10 10:01:02;;;;;;;18.75;16.52;;;;;;;;;;5063099;28;20877;-88
2022/12/10 10:03:29;;;;;;;19.00;16.98;;;;;;;;;;5086444;28;20443;-87
2022/12/10 10:05:56;;;;;;;18.50;16.48;;;;;;;;;;5103242;28;20395;-86
2022/12/10 10:08:25;;;;;;;19.27;17.13;;;;;;;;;;5083674;28;20401;-86
2022/12/10 10:10:51;;;;;;;18.25;16.35;;;;;;;;;;5079762;28;20451;-87
2022/12/10 10:13:21;;;;;;;18.77;16.77;;;;;;;;;;5080498;28;20848;-86
2022/12/10 10:15:48;;;;;;;18.42;16.42;;;;;;;;;;5083630;28;20430;-86
2022/12/10 10:18:14;;;;;;;20.20;17.60;;;;;;;;;;5095174;28;20468;-88
2022/12/10 10:20:40;;;;;;;19.05;17.05;;;;;;;;;;5063267;28;20501;-85
2022/12/10 10:23:06;;;;;;;19.05;17.05;;;;;;;;;;5087931;28;20375;-86
2022/12/10 10:25:32;;;;;;;22.80;18.25;;;;;;;;;;5071898;28;20466;-85
2022/12/10 10:27:58;;;;;;;17.73;15.90;;;;;;;;;;5094704;28;20424;-85
2022/12/10 10:30:24;;;;;;;15.98;14.23;;;;;;;;;;5094856;28;20848;-85
2022/12/10 10:32:52;;;;;;;17.83;15.17;;;;;;;;;;5094712;28;20948;-86
2022/12/10 10:35:41;;;;;;;15.77;14.15;;;;;;;;;;5093127;28;20444;-86
2022/12/10 10:38:08;;;;;;;16.60;14.63;;;;;;;;;;5094123;28;20441;-87
2022/12/10 10:40:43;;;;;;;16.25;14.55;;;;;;;;;;5094491;28;20405;-87
2022/12/10 10:43:15;;;;;;;17.10;15.30;;;;;;;;;;5107902;28;20384;-88
2022/12/10 10:45:48;;;;;;;15.40;13.80;;;;;;;;;;5085723;28;20516;-88
2022/12/10 10:48:16;;;;;;;16.45;14.75;;;;;;;;;;5094852;28;20394;-87
2022/12/10 10:50:46;;;;;;;16.30;14.60;;;;;;;;;;5094665;28;20485;-88
2022/12/10 10:53:32;;;;;;;17.33;15.20;;;;;;;;;;5094537;28;20505;-87
2022/12/10 10:56:06;;;;;;;16.15;14.45;;;;;;;;;;5094779;28;20496;-87
2022/12/10 10:58:32;;;;;;;29.35;23.10;;;;;;;;;;5094180;28;20491;-88
2022/12/10 11:01:00;;;;;;;17.27;15.48;;;;;;;;;;5090862;28;20378;-87
2022/12/10 11:03:27;;;;;;;15.48;13.77;;;;;;;;;;5094082;28;20921;-87
2022/12/10 11:05:54;;;;;;;18.08;16.20;;;;;;;;;;5075914;28;20397;-88
2022/12/10 11:08:21;;;;;;;18.00;15.70;;;;;;;;;;5094332;28;20455;-88
2022/12/10 11:11:01;;;;;;;16.45;14.75;;;;;;;;;;5094123;28;20442;-88
2022/12/10 11:13:28;;;;;;;15.88;14.25;;;;;;;;;;5076008;28;20405;-88
2022/12/10 11:16:00;;;;;;;16.87;15.07;;;;;;;;;;5094239;28;20390;-88
2022/12/10 11:18:30;;;;;;;17.42;15.63;;;;;;;;;;5094111;28;20386;-88
2022/12/10 11:20:57;;;;;;;20.37;17.20;;;;;;;;;;5094039;28;20392;-88
2022/12/10 11:23:27;;;;;;;21.33;18.17;;;;;;;;;;5075912;28;20422;-88
2022/12/10 11:25:53;;;;;;;20.23;17.08;;;;;;;;;;5093682;28;20425;-87
2022/12/10 11:28:19;;;;;;;21.33;17.60;;;;;;;;;;5093962;28;20781;-88
2022/12/10 11:30:49;;;;;;;21.58;18.02;;;;;;;;;;5093624;28;20382;-89
2022/12/10 11:33:25;;;;;;;23.97;19.30;;;;;;;;;;5074981;28;20426;-86
2022/12/10 11:35:51;;;;;;;20.08;16.60;;;;;;;;;;5072539;28;20859;-86
2022/12/10 11:38:31;;;;;;;15.17;13.67;;;;;;;;;;5093759;28;20799;-86
2022/12/10 11:40:57;;;;;;;16.95;14.57;;;;;;;;;;5093780;28;20512;-86
2022/12/10 11:43:25;;;;;;;69.95;37.85;;;;;;;;;;5083180;28;20393;-88
2022/12/10 11:46:18;;;;;;;16.17;14.48;;;;;;;;;;5083431;28;20395;-87
2022/12/10 11:49:03;;;;;;;15.90;13.73;;;;;;;;;;5089671;28;20386;-90
2022/12/10 11:51:47;;;;;;;15.75;14.15;;;;;;;;;;5093392;28;20431;-85
2022/12/10 11:54:13;;;;;;;15.52;13.93;;;;;;;;;;5090163;28;20418;-85
2022/12/10 11:56:43;;;;;;;16.38;14.77;;;;;;;;;;5078729;28;20530;-86
2022/12/10 11:59:09;;;;;;;17.23;15.48;;;;;;;;;;5104327;28;20398;-85
2022/12/10 12:01:47;;;;;;;16.80;15.10;;;;;;;;;;5092761;28;20393;-85
2022/12/10 12:04:33;;;;;;;17.58;15.32;;;;;;;;;;5103673;28;20374;-84
2022/12/10 12:07:17;;;;;;;19.63;16.38;;;;;;;;;;5093088;28;20448;-85
2022/12/10 12:09:46;;;;;;;17.10;15.38;;;;;;;;;;5093117;28;20381;-85
2022/12/10 12:12:12;;;;;;;15.02;13.45;;;;;;;;;;5087701;28;20374;-85
2022/12/10 12:14:59;;;;;;;13.63;12.32;;;;;;;;;;5071102;28;20388;-84
2022/12/10 12:17:28;;;;;;;12.85;11.55;;;;;;;;;;5073668;28;20469;-86
2022/12/10 12:20:09;;;;;;;13.30;11.90;;;;;;;;;;5079202;28;20463;-86
2022/12/10 12:22:37;;;;;;;12.87;11.77;;;;;;;;;;5091064;28;20445;-89
2022/12/10 12:25:17;;;;;;;12.35;11.15;;;;;;;;;;5080589;28;20434;-89
2022/12/10 12:27:46;;;;;;;10.93;9.82;;;;;;;;;;5073572;28;20450;-89
2022/12/10 12:30:22;;;;;;;11.63;10.52;;;;;;;;;;5077850;28;20432;-88
2022/12/10 12:32:57;;;;;;;10.95;9.95;;;;;;;;;;5078775;28;20427;-88
2022/12/10 12:35:23;;;;;;;10.73;9.73;;;;;;;;;;5082568;28;20429;-88
2022/12/10 12:37:58;;;;;;;11.15;10.15;;;;;;;;;;5063291;28;20743;-87
2022/12/10 12:40:24;;;;;;;10.93;9.93;;;;;;;;;;5064016;28;20417;-86
2022/12/10 12:42:56;;;;;;;11.10;10.10;;;;;;;;;;5078546;28;20387;-87
2022/12/10 12:45:28;;;;;;;10.50;9.60;;;;;;;;;;5074483;28;20421;-87
2022/12/10 12:48:10;;;;;;;11.70;10.57;;;;;;;;;;5064237;28;20383;-87
2022/12/10 12:50:43;;;;;;;11.27;10.27;;;;;;;;;;5077918;28;20464;-90
2022/12/10 12:53:11;;;;;;;11.85;10.75;;;;;;;;;;5086456;28;20887;-89
2022/12/10 12:55:52;;;;;;;11.25;10.25;;;;;;;;;;5090782;28;20382;-89
2022/12/10 12:58:36;;;;;;;11.25;10.25;;;;;;;;;;5078860;28;20398;-90
2022/12/10 13:01:26;;;;;;;11.05;10.05;;;;;;;;;;5097220;28;20401;-92
2022/12/10 13:03:52;;;;;;;11.68;10.50;;;;;;;;;;5079439;28;20370;-91
2022/12/10 13:06:29;;;;;;;11.50;10.50;;;;;;;;;;5099346;28;20882;-90
2022/12/10 13:09:01;;;;;;;12.13;11.00;;;;;;;;;;5080553;28;20422;-92
2022/12/10 13:11:32;;;;;;;11.35;10.35;;;;;;;;;;5080608;28;20452;-90
2022/12/10 13:14:10;;;;;;;11.23;10.23;;;;;;;;;;5101750;28;20452;-90
2022/12/10 13:16:43;;;;;;;11.55;10.45;;;;;;;;;;5098968;28;20440;-90
2022/12/10 13:19:21;;;;;;;11.18;10.27;;;;;;;;;;5098971;28;20397;-90
2022/12/10 13:21:50;;;;;;;10.60;9.60;;;;;;;;;;5098956;28;20454;-90
2022/12/10 13:24:18;;;;;;;12.10;10.90;;;;;;;;;;5080827;28;20425;-91
2022/12/10 13:27:03;;;;;;;12.10;10.90;;;;;;;;;;5099414;28;20925;-90
2022/12/10 13:29:29;;;;;;;11.73;10.52;;;;;;;;;;5113045;28;20507;-92
2022/12/10 13:31:57;;;;;;;11.90;10.80;;;;;;;;;;5087640;28;20861;-91
2022/12/10 13:34:30;;;;;;;13.00;11.73;;;;;;;;;;5086409;28;20426;-92
2022/12/10 13:37:02;;;;;;;12.55;11.45;;;;;;;;;;5092544;28;20424;-93
2022/12/10 13:39:33;;;;;;;13.43;12.23;;;;;;;;;;5105265;28;20470;-91
2022/12/10 13:45:02;;;;;;;15.80;14.20;;;;;;;;;;5091033;28;20432;-92
2022/12/10 13:47:37;;;;;;;14.75;13.35;;;;;;;;;;5097961;28;20385;-91
2022/12/10 13:50:13;;;;;;;13.93;12.18;;;;;;;;;;5109027;28;20386;-89
2022/12/10 13:52:51;;;;;;;13.23;11.82;;;;;;;;;;5098642;28;20417;-92
2022/12/10 13:55:35;;;;;;;14.38;12.98;;;;;;;;;;5098321;28;20382;-90
2022/12/10 13:58:14;;;;;;;15.15;13.75;;;;;;;;;;5080556;28;20871;-91
2022/12/10 14:00:51;;;;;;;13.38;12.07;;;;;;;;;;5098780;28;20453;-91
2022/12/10 14:03:17;;;;;;;13.98;12.57;;;;;;;;;;5108779;28;20864;-91
2022/12/10 14:05:49;;;;;;;13.05;11.88;;;;;;;;;;5080599;28;20378;-91
2022/12/10 14:08:18;;;;;;;13.65;12.35;;;;;;;;;;5098489;28;20475;-92
2022/12/10 14:10:45;;;;;;;13.40;12.10;;;;;;;;;;5095513;28;20382;-91
2022/12/10 14:13:12;;;;;;;11.98;10.98;;;;;;;;;;5077044;28;20394;-91
2022/12/10 14:15:38;;;;;;;42.75;23.05;;;;;;;;;;5109829;28;20374;-92
2022/12/10 14:18:11;;;;;;;14.17;12.70;;;;;;;;;;5095376;28;20439;-90
2022/12/10 14:20:40;;;;;;;13.30;12.00;;;;;;;;;;5095431;28;20466;-91
2022/12/10 14:23:37;;;;;;;13.85;12.45;;;;;;;;;;5095229;28;20464;-91
2022/12/10 14:26:05;;;;;;;16.52;13.35;;;;;;;;;;5095069;28;20382;-91
2022/12/10 14:28:33;;;;;;;12.20;11.10;;;;;;;;;;5095203;28;20419;-91
2022/12/10 14:30:59;;;;;;;15.02;13.18;;;;;;;;;;5076837;28;20422;-91
2022/12/10 14:33:25;;;;;;;12.30;11.10;;;;;;;;;;5094794;28;20447;-90
2022/12/10 14:35:53;;;;;;;11.87;10.73;;;;;;;;;;5095100;28;20388;-90
2022/12/10 14:38:30;;;;;;;14.40;12.97;;;;;;;;;;5098892;28;20388;-90
2022/12/10 14:40:56;;;;;;;14.65;13.18;;;;;;;;;;5098761;28;20386;-92